createdAt,value
2019-04-21T00:00:37.513Z,14.50
2019-04-21T00:03:11.695Z,14.30
2019-04-21T00:05:58.650Z,14.93
2019-04-21T00:08:30.549Z,15.05
2019-04-21T00:10:57.794Z,15.48
2019-04-21T00:13:21.105Z,14.80
2019-04-21T00:15:45.704Z,14.73
2019-04-21T00:18:15.666Z,14.83
2019-04-21T00:20:49.808Z,13.78
2019-04-21T00:23:32.862Z,14.65
2019-04-21T00:25:55.175Z,13.95
2019-04-21T00:28:42.377Z,13.87
2019-04-21T00:31:06.538Z,13.43
2019-04-21T00:33:21.402Z,13.78
2019-04-21T00:35:52.912Z,13.95
2019-04-21T00:38:42.690Z,13.38
2019-04-21T00:41:05.507Z,14.30
2019-04-21T00:43:33.588Z,13.05
2019-04-21T00:45:58.865Z,13.95
2019-04-21T00:48:36.518Z,13.83
2019-04-21T00:53:51.655Z,13.55
2019-04-21T00:56:16.629Z,13.90
2019-04-21T00:58:46.250Z,14.10
2019-04-21T01:01:15.220Z,13.13
2019-04-21T01:03:45.885Z,13.58
2019-04-21T01:06:16.338Z,13.80
2019-04-21T01:08:44.073Z,13.85
2019-04-21T01:11:19.208Z,13.93
2019-04-21T01:13:49.752Z,13.65
2019-04-21T01:16:20.632Z,13.40
2019-04-21T01:18:44.544Z,13.80
2019-04-21T01:20:53.714Z,13.80
2019-04-21T01:23:23.321Z,13.72
2019-04-21T01:26:10.609Z,14.13
2019-04-21T01:28:41.065Z,13.65
2019-04-21T01:31:11.130Z,12.93
2019-04-21T01:33:44.900Z,13.50
2019-04-21T01:36:11.015Z,13.65
2019-04-21T01:38:52.488Z,13.70
2019-04-21T01:41:16.179Z,14.03
2019-04-21T01:43:42.746Z,13.88
2019-04-21T01:46:09.303Z,14.20
2019-04-21T01:48:40.321Z,13.68
2019-04-21T01:51:08.522Z,15.03
2019-04-21T01:53:48.628Z,13.55
2019-04-21T01:56:25.737Z,13.83
2019-04-21T01:58:44.332Z,13.87
2019-04-21T02:01:24.367Z,14.20
2019-04-21T02:04:07.233Z,13.88
2019-04-21T02:06:27.517Z,14.00
2019-04-21T02:08:52.526Z,14.47
2019-04-21T02:11:43.323Z,14.10
2019-04-21T02:14:05.453Z,14.05
2019-04-21T02:16:23.056Z,14.55
2019-04-21T02:18:54.451Z,13.90
2019-04-21T02:21:21.701Z,14.37
2019-04-21T02:23:59.053Z,13.53
2019-04-21T02:26:32.035Z,14.18
2019-04-21T02:29:02.027Z,13.95
2019-04-21T02:31:40.404Z,13.85
2019-04-21T02:34:19.193Z,13.97
2019-04-21T02:39:20.697Z,14.38
2019-04-21T02:41:43.731Z,14.65
2019-04-21T02:44:10.532Z,14.63
2019-04-21T02:51:44.308Z,14.60
2019-04-21T03:01:53.582Z,14.33
2019-04-21T03:07:01.586Z,14.55
2019-04-21T03:09:31.054Z,13.40
2019-04-21T03:12:05.601Z,13.75
2019-04-21T03:14:41.436Z,13.98
2019-04-21T03:16:52.743Z,13.90
2019-04-21T03:19:41.689Z,14.00
2019-04-21T03:21:57.594Z,13.58
2019-04-21T03:24:29.498Z,13.55
2019-04-21T03:27:12.589Z,13.85
2019-04-21T03:29:28.438Z,13.95
2019-04-21T03:32:24.202Z,13.53
2019-04-21T03:34:57.065Z,13.90
2019-04-21T03:39:33.172Z,13.88
2019-04-21T03:42:08.240Z,13.98
2019-04-21T03:44:42.232Z,14.07
2019-04-21T03:46:56.071Z,14.18
2019-04-21T03:52:02.981Z,14.05
2019-04-21T03:54:25.267Z,14.43
2019-04-21T03:57:13.083Z,13.30
2019-04-21T03:59:16.247Z,13.45
2019-04-21T04:04:49.620Z,13.72
2019-04-21T04:07:43.776Z,13.77
2019-04-21T04:12:34.729Z,13.47
2019-04-21T04:15:09.410Z,13.50
2019-04-21T04:17:36.441Z,13.30
2019-04-21T04:20:04.041Z,13.30
2019-04-21T04:22:43.426Z,13.60
2019-04-21T04:25:05.008Z,14.18
2019-04-21T04:30:17.593Z,13.77
2019-04-21T04:32:38.518Z,13.05
2019-04-21T04:35:13.857Z,13.75
2019-04-21T04:37:40.586Z,13.32
2019-04-21T04:40:19.683Z,13.50
2019-04-21T04:42:47.857Z,14.10
2019-04-21T04:47:46.612Z,13.62
2019-04-21T04:50:17.795Z,13.40
2019-04-21T05:00:28.113Z,12.80
2019-04-21T05:02:40.488Z,13.68
2019-04-21T05:05:31.460Z,13.32
2019-04-21T05:07:50.093Z,12.95
2019-04-21T05:10:17.597Z,12.78
2019-04-21T05:12:46.035Z,13.00
2019-04-21T05:15:12.911Z,12.90
2019-04-21T05:17:43.296Z,12.78
2019-04-21T05:22:47.413Z,13.03
2019-04-21T05:25:05.198Z,13.10
2019-04-21T05:27:36.546Z,12.90
2019-04-21T05:30:23.221Z,12.95
2019-04-21T05:33:01.291Z,12.43
2019-04-21T05:35:50.318Z,13.30
2019-04-21T05:38:36.567Z,13.18
2019-04-21T05:41:00.188Z,12.60
2019-04-21T05:43:40.409Z,13.27
2019-04-21T05:46:13.755Z,12.78
2019-04-21T05:48:52.444Z,12.88
2019-04-21T05:51:20.555Z,13.00
2019-04-21T05:54:04.934Z,13.50
2019-04-21T05:56:32.413Z,13.32
2019-04-21T05:58:57.958Z,14.40
2019-04-21T06:01:35.781Z,14.28
2019-04-21T06:03:57.048Z,13.27
2019-04-21T06:06:34.046Z,13.13
2019-04-21T06:08:53.919Z,13.95
2019-04-21T06:11:30.751Z,14.28
2019-04-21T06:16:31.873Z,13.60
2019-04-21T06:18:58.764Z,13.78
2019-04-21T06:21:28.066Z,14.15
2019-04-21T06:23:57.293Z,14.10
2019-04-21T06:26:54.970Z,13.90
2019-04-21T06:28:57.472Z,13.62
2019-04-21T06:31:47.028Z,13.60
2019-04-21T06:34:03.539Z,13.78
2019-04-21T06:36:42.684Z,14.03
2019-04-21T06:39:11.629Z,13.93
2019-04-21T06:41:34.264Z,14.87
2019-04-21T06:49:03.093Z,14.85
2019-04-21T06:51:49.722Z,15.15
2019-04-21T06:54:09.530Z,15.18
2019-04-21T06:59:06.747Z,15.23
2019-04-21T07:04:13.352Z,15.30
2019-04-21T07:06:45.622Z,15.28
2019-04-21T07:09:17.337Z,15.85
2019-04-21T07:11:31.789Z,15.48
2019-04-21T07:14:27.232Z,15.63
2019-04-21T07:16:41.516Z,16.20
2019-04-21T07:19:18.131Z,15.90
2019-04-21T07:21:43.414Z,16.25
2019-04-21T07:24:14.744Z,15.90
2019-04-21T07:26:36.739Z,16.90
2019-04-21T07:29:07.632Z,16.30
2019-04-21T07:31:40.420Z,16.85
2019-04-21T07:36:45.058Z,16.48
2019-04-21T07:39:05.787Z,16.73
2019-04-21T07:41:35.017Z,16.52
2019-04-21T07:50:41.688Z,16.85
2019-04-21T07:53:27.716Z,16.60
2019-04-21T07:55:32.612Z,17.52
2019-04-21T07:58:24.275Z,17.17
2019-04-21T08:03:21.455Z,17.50
2019-04-21T08:05:53.678Z,16.87
2019-04-21T08:08:26.264Z,17.07
2019-04-21T08:10:57.308Z,16.80
2019-04-21T08:13:39.198Z,16.55
2019-04-21T08:15:59.535Z,16.48
2019-04-21T08:18:35.011Z,16.67
2019-04-21T08:21:03.804Z,16.23
2019-04-21T08:23:31.580Z,16.37
2019-04-21T08:26:06.610Z,17.15
2019-04-21T08:28:32.354Z,16.02
2019-04-21T08:31:01.420Z,16.85
2019-04-21T08:38:34.402Z,36.40
2019-04-21T08:41:01.580Z,33.42
2019-04-21T08:43:45.614Z,19.20
2019-04-21T08:46:01.539Z,18.55
2019-04-21T08:48:28.644Z,25.10
2019-04-21T08:51:18.536Z,16.37
2019-04-21T08:53:39.918Z,16.93
2019-04-21T08:56:16.486Z,18.57
2019-04-21T08:59:02.248Z,25.92
2019-04-21T09:01:25.845Z,19.75
2019-04-21T09:03:56.837Z,32.73
2019-04-21T09:06:34.296Z,20.73
2019-04-21T09:08:58.555Z,22.32
2019-04-21T09:11:23.989Z,39.80
2019-04-21T09:14:05.201Z,29.53
2019-04-21T09:16:32.599Z,16.43
2019-04-21T09:18:54.489Z,16.77
2019-04-21T09:21:31.469Z,25.70
2019-04-21T09:24:06.429Z,31.45
2019-04-21T09:26:29.633Z,25.50
2019-04-21T09:28:57.335Z,20.65
2019-04-21T09:31:19.371Z,21.57
2019-04-21T09:33:50.297Z,22.30
2019-04-21T09:36:19.928Z,16.95
2019-04-21T09:38:57.670Z,15.68
2019-04-21T09:41:18.954Z,16.27
2019-04-21T09:43:50.815Z,12.82
2019-04-21T09:46:16.245Z,14.70
2019-04-21T09:48:53.843Z,14.58
2019-04-21T09:51:15.552Z,15.18
2019-04-21T09:53:53.547Z,15.35
2019-04-21T09:56:16.641Z,14.33
2019-04-21T09:58:49.477Z,14.47
2019-04-21T10:01:22.787Z,13.80
2019-04-21T10:03:49.059Z,14.43
2019-04-21T10:06:17.195Z,14.87
2019-04-21T10:08:48.418Z,13.10
2019-04-21T10:11:16.385Z,13.95
2019-04-21T10:13:46.247Z,13.30
2019-04-21T10:16:32.092Z,13.10
2019-04-21T10:19:00.726Z,14.13
2019-04-21T10:21:29.415Z,13.08
2019-04-21T10:23:57.862Z,11.93
2019-04-21T10:26:26.633Z,13.05
2019-04-21T10:28:58.700Z,12.43
2019-04-21T10:31:25.136Z,13.22
2019-04-21T10:33:54.519Z,11.83
2019-04-21T10:36:23.098Z,14.73
2019-04-21T10:38:53.526Z,14.43
2019-04-21T10:41:21.651Z,12.20
2019-04-21T10:43:51.360Z,12.03
2019-04-21T10:46:20.217Z,12.13
2019-04-21T10:48:48.693Z,12.70
2019-04-21T10:51:17.224Z,11.35
2019-04-21T10:53:50.841Z,11.35
2019-04-21T10:56:26.563Z,10.53
2019-04-21T10:58:47.438Z,11.48
2019-04-21T11:01:18.832Z,13.03
2019-04-21T11:03:58.489Z,10.98
2019-04-21T11:06:28.585Z,12.00
2019-04-21T11:08:58.997Z,11.68
2019-04-21T11:11:27.936Z,12.18
2019-04-21T11:13:56.804Z,11.97
2019-04-21T11:16:25.291Z,12.10
2019-04-21T11:18:53.758Z,11.93
2019-04-21T11:21:22.934Z,12.53
2019-04-21T11:23:52.204Z,13.00
2019-04-21T11:26:21.981Z,13.40
2019-04-21T11:28:50.708Z,13.53
2019-04-21T11:31:19.192Z,13.43
2019-04-21T11:33:51.278Z,13.48
2019-04-21T11:36:19.731Z,13.48
2019-04-21T11:39:06.269Z,12.80
2019-04-21T11:41:23.721Z,12.73
2019-04-21T11:43:53.081Z,13.08
2019-04-21T11:46:22.840Z,12.68
2019-04-21T11:48:54.608Z,12.77
2019-04-21T11:51:24.959Z,12.37
2019-04-21T11:53:55.350Z,11.38
2019-04-21T11:56:24.989Z,11.33
2019-04-21T11:58:55.162Z,11.35
2019-04-21T12:01:23.982Z,12.30
2019-04-21T12:03:53.870Z,12.18
2019-04-21T12:06:32.150Z,11.75
2019-04-21T12:08:59.347Z,11.28
2019-04-21T12:11:27.206Z,10.43
2019-04-21T12:13:56.263Z,10.48
2019-04-21T12:16:26.840Z,10.90
2019-04-21T12:18:56.779Z,10.20
2019-04-21T12:21:28.343Z,9.55
2019-04-21T12:23:56.612Z,10.40
2019-04-21T12:26:26.269Z,10.57
2019-04-21T12:28:55.810Z,10.45
2019-04-21T12:31:35.851Z,12.55
2019-04-21T12:34:06.239Z,9.78
2019-04-21T12:36:35.861Z,10.65
2019-04-21T12:39:08.411Z,10.40
2019-04-21T12:41:36.443Z,10.98
2019-04-21T12:44:04.863Z,11.50
2019-04-21T12:46:33.934Z,11.35
2019-04-21T12:49:04.154Z,11.43
2019-04-21T12:51:33.752Z,11.03
2019-04-21T12:54:03.833Z,12.03
2019-04-21T12:56:33.414Z,11.40
2019-04-21T12:59:02.018Z,11.73
2019-04-21T13:01:30.883Z,11.80
2019-04-21T13:04:01.830Z,10.20
2019-04-21T13:06:32.043Z,9.78
2019-04-21T13:09:05.264Z,9.65
2019-04-21T13:11:33.064Z,10.30
2019-04-21T13:14:01.996Z,9.38
2019-04-21T13:16:31.769Z,9.18
2019-04-21T13:19:00.178Z,9.95
2019-04-21T13:21:29.820Z,8.45
2019-04-21T13:24:00.991Z,10.23
2019-04-21T13:26:37.392Z,9.43
2019-04-21T13:29:00.527Z,8.95
2019-04-21T13:31:29.990Z,8.17
2019-04-21T13:33:59.861Z,8.30
2019-04-21T13:36:29.568Z,7.75
2019-04-21T13:39:45.847Z,8.90
2019-04-21T13:42:00.249Z,9.30
2019-04-21T13:44:19.613Z,7.65
2019-04-21T13:46:49.185Z,9.93
2019-04-21T13:49:19.088Z,8.33
2019-04-21T13:51:48.094Z,7.95
2019-04-21T13:54:17.862Z,7.20
2019-04-21T13:56:46.889Z,8.28
2019-04-21T13:59:16.080Z,7.15
2019-04-21T14:01:45.698Z,7.35
2019-04-21T14:04:15.909Z,6.73
2019-04-21T14:06:44.656Z,6.53
2019-04-21T14:09:13.852Z,8.03
2019-04-21T14:11:43.439Z,6.90
2019-04-21T14:14:12.455Z,6.87
2019-04-21T14:16:42.203Z,7.75
2019-04-21T14:19:10.724Z,7.00
2019-04-21T14:21:39.228Z,7.80
2019-04-21T14:24:08.754Z,6.58
2019-04-21T14:26:38.417Z,6.70
2019-04-21T14:29:08.208Z,6.00
2019-04-21T14:31:38.135Z,7.15
2019-04-21T14:34:07.930Z,5.67
2019-04-21T14:36:37.016Z,6.17
2019-04-21T14:39:08.502Z,7.95
2019-04-21T14:41:37.951Z,7.00
2019-04-21T14:44:06.900Z,6.20
2019-04-21T14:46:53.156Z,6.03
2019-04-21T14:49:27.066Z,6.97
2019-04-21T14:51:58.878Z,6.15
2019-04-21T14:54:34.835Z,5.97
2019-04-21T14:57:03.389Z,5.65
2019-04-21T14:59:33.104Z,6.12
2019-04-21T15:02:02.220Z,7.07
2019-04-21T15:04:35.491Z,5.67
2019-04-21T15:21:28.998Z,6.35
2019-04-21T15:23:58.199Z,5.62
2019-04-21T15:26:28.317Z,5.80
2019-04-21T15:28:57.092Z,5.75
2019-04-21T15:31:30.536Z,7.37
2019-04-21T15:33:57.009Z,6.20
2019-04-21T15:36:25.459Z,6.50
2019-04-21T15:38:54.159Z,5.17
2019-04-21T15:41:22.710Z,5.55
2019-04-21T15:43:51.062Z,5.90
2019-04-21T15:46:20.551Z,5.78
2019-04-21T15:48:49.186Z,5.72
2019-04-21T15:51:17.893Z,5.70
2019-04-21T15:53:47.885Z,5.53
2019-04-21T15:56:24.597Z,6.20
2019-04-21T15:59:08.373Z,6.37
2019-04-21T16:01:38.919Z,6.33
2019-04-21T16:04:08.094Z,7.70
2019-04-21T16:06:37.334Z,7.50
2019-04-21T16:09:08.496Z,7.30
2019-04-21T16:11:37.899Z,5.72
2019-04-21T16:14:07.940Z,5.30
2019-04-21T16:16:36.516Z,7.10
2019-04-21T16:19:06.123Z,6.12
2019-04-21T16:21:38.351Z,5.42
2019-04-21T16:24:06.597Z,5.62
2019-04-21T16:26:35.208Z,6.58
2019-04-21T16:29:04.900Z,5.67
2019-04-21T16:31:34.328Z,5.83
2019-04-21T16:34:03.176Z,6.35
2019-04-21T16:36:31.870Z,6.53
2019-04-21T16:39:01.719Z,6.70
2019-04-21T16:41:30.273Z,6.60
2019-04-21T16:43:58.877Z,7.15
2019-04-21T16:46:27.582Z,6.22
2019-04-21T16:48:56.015Z,6.05
2019-04-21T16:51:24.434Z,6.35
2019-04-21T16:53:55.622Z,6.53
2019-04-21T16:56:26.888Z,7.25
2019-04-21T16:58:58.736Z,5.85
2019-04-21T17:01:31.966Z,5.87
2019-04-21T17:04:00.415Z,5.95
2019-04-21T17:06:29.230Z,5.90
2019-04-21T17:08:59.025Z,6.00
2019-04-21T17:11:33.091Z,6.92
2019-04-21T17:13:58.224Z,6.83
2019-04-21T17:16:47.944Z,6.28
2019-04-21T17:19:05.203Z,6.40
2019-04-21T17:21:28.111Z,7.35
2019-04-21T17:23:56.748Z,6.27
2019-04-21T17:26:25.081Z,6.20
2019-04-21T17:28:54.328Z,6.30
2019-04-21T17:31:22.705Z,6.30
2019-04-21T17:33:57.825Z,6.30
2019-04-21T17:36:21.290Z,6.58
2019-04-21T17:38:50.172Z,6.12
2019-04-21T17:41:27.855Z,6.60
2019-04-21T17:43:49.816Z,6.65
2019-04-21T17:46:22.960Z,5.80
2019-04-21T17:48:49.297Z,6.17
2019-04-21T17:51:25.628Z,6.25
2019-04-21T17:54:02.262Z,5.97
2019-04-21T17:56:55.260Z,6.53
2019-04-21T17:59:28.145Z,13.80
2019-04-21T18:01:56.396Z,6.12
2019-04-21T18:04:28.520Z,10.77
2019-04-21T18:06:50.183Z,7.10
2019-04-21T18:09:28.610Z,7.30
2019-04-21T18:11:51.053Z,6.80
2019-04-21T18:14:09.429Z,7.72
2019-04-21T18:16:41.572Z,6.17
2019-04-21T18:19:08.850Z,7.12
2019-04-21T18:21:54.101Z,6.50
2019-04-21T18:24:24.211Z,8.03
2019-04-21T18:26:57.218Z,7.50
2019-04-21T18:29:23.792Z,7.50
2019-04-21T18:31:54.160Z,7.45
2019-04-21T18:34:29.272Z,6.60
2019-04-21T18:37:00.819Z,7.03
2019-04-21T18:39:46.505Z,6.90
2019-04-21T18:42:24.705Z,6.60
2019-04-21T18:45:34.322Z,6.20
2019-04-21T18:47:53.918Z,6.67
2019-04-21T18:50:35.945Z,7.17
2019-04-21T18:53:13.712Z,6.42
2019-04-21T18:55:39.053Z,6.83
2019-04-21T18:58:01.014Z,6.50
2019-04-21T19:00:33.330Z,6.67
2019-04-21T19:03:00.190Z,6.97
2019-04-21T19:05:29.877Z,7.00
2019-04-21T19:08:14.806Z,6.58
2019-04-21T19:10:47.970Z,6.80
2019-04-21T19:16:08.306Z,6.40
2019-04-21T19:18:33.194Z,6.62
2019-04-21T19:20:46.338Z,6.70
2019-04-21T19:23:26.433Z,6.42
2019-04-21T19:25:46.266Z,6.20
2019-04-21T19:28:16.416Z,6.53
2019-04-21T19:30:51.022Z,6.33
2019-04-21T19:33:14.146Z,6.30
2019-04-21T19:35:29.702Z,6.35
2019-04-21T19:38:04.698Z,5.80
2019-04-21T19:40:47.393Z,6.47
2019-04-21T19:43:11.802Z,7.10
2019-04-21T19:45:43.643Z,7.08
2019-04-21T19:48:15.351Z,6.58
2019-04-21T19:50:47.002Z,6.90
2019-04-21T19:53:08.792Z,6.40
2019-04-21T19:55:28.329Z,6.67
2019-04-21T19:57:56.817Z,6.80
2019-04-21T20:00:26.589Z,6.77
2019-04-21T20:02:56.343Z,7.75
2019-04-21T20:05:34.981Z,8.23
2019-04-21T20:08:16.342Z,9.63
2019-04-21T20:10:44.464Z,8.57
2019-04-21T20:13:19.919Z,8.78
2019-04-21T20:15:46.686Z,7.72
2019-04-21T20:18:10.038Z,7.00
2019-04-21T20:20:26.841Z,6.40
2019-04-21T20:22:56.044Z,6.58
2019-04-21T20:25:27.075Z,6.40
2019-04-21T20:28:03.720Z,6.95
2019-04-21T20:30:42.281Z,6.60
2019-04-21T20:33:37.066Z,6.60
2019-04-21T20:35:52.020Z,6.65
2019-04-21T20:38:11.419Z,6.95
2019-04-21T20:40:36.246Z,6.70
2019-04-21T20:43:16.427Z,6.90
2019-04-21T20:45:49.247Z,6.35
2019-04-21T20:48:05.945Z,6.58
2019-04-21T20:50:38.036Z,6.50
2019-04-21T20:53:14.597Z,6.80
2019-04-21T20:55:43.059Z,6.40
2019-04-21T20:58:06.854Z,6.58
2019-04-21T21:01:04.231Z,6.70
2019-04-21T21:03:21.333Z,6.08
2019-04-21T21:05:43.713Z,6.37
2019-04-21T21:08:21.461Z,6.55
2019-04-21T21:10:42.461Z,6.00
2019-04-21T21:13:20.412Z,6.65
2019-04-21T21:16:01.158Z,6.97
2019-04-21T21:18:26.541Z,6.20
2019-04-21T21:20:49.770Z,6.92
2019-04-21T21:23:11.753Z,6.80
2019-04-21T21:26:04.760Z,7.28
2019-04-21T21:28:08.830Z,7.50
2019-04-21T21:30:41.446Z,7.50
2019-04-21T21:33:18.512Z,7.95
2019-04-21T21:35:41.244Z,8.50
2019-04-21T21:38:19.762Z,7.92
2019-04-21T21:40:53.014Z,8.30
2019-04-21T21:43:16.643Z,8.65
2019-04-21T21:45:47.488Z,8.98
2019-04-21T21:48:31.841Z,9.60
2019-04-21T21:50:56.637Z,9.15
2019-04-21T21:53:22.891Z,8.18
2019-04-21T21:55:48.808Z,10.00
2019-04-21T21:58:26.366Z,7.67
2019-04-21T22:00:57.007Z,10.68
2019-04-21T22:03:31.163Z,7.62
2019-04-21T22:06:09.919Z,10.87
2019-04-21T22:08:38.691Z,7.23
2019-04-21T22:11:08.923Z,10.90
2019-04-21T22:13:46.420Z,10.40
2019-04-21T22:16:12.271Z,11.35
2019-04-21T22:19:03.515Z,10.55
2019-04-21T22:21:21.608Z,11.18
2019-04-21T22:23:47.549Z,10.88
2019-04-21T22:26:09.159Z,11.97
2019-04-21T22:28:37.783Z,10.10
2019-04-21T22:31:15.459Z,11.07
2019-04-21T22:33:43.768Z,11.77
2019-04-21T22:36:20.969Z,11.80
2019-04-21T22:38:47.555Z,11.90
2019-04-21T22:41:20.412Z,12.55
2019-04-21T22:43:43.391Z,10.68
2019-04-21T22:46:07.332Z,12.28
2019-04-21T22:48:36.756Z,11.95
2019-04-21T22:51:07.701Z,12.15
2019-04-21T22:53:41.846Z,11.48
2019-04-21T22:56:13.767Z,13.03
2019-04-21T22:58:39.361Z,12.90
2019-04-21T23:01:06.168Z,12.80
2019-04-21T23:03:35.725Z,12.75
2019-04-21T23:06:10.985Z,12.85
2019-04-21T23:08:38.389Z,11.68
2019-04-21T23:11:08.655Z,12.05
2019-04-21T23:13:34.615Z,12.43
2019-04-21T23:16:05.842Z,13.13
2019-04-21T23:18:49.164Z,12.35
2019-04-21T23:21:17.636Z,11.63
2019-04-21T23:23:51.810Z,12.30
2019-04-21T23:26:23.672Z,12.07
2019-04-21T23:29:00.354Z,13.05
2019-04-21T23:31:26.148Z,12.47
2019-04-21T23:33:34.628Z,12.43
2019-04-21T23:36:13.001Z,12.63
2019-04-21T23:38:39.698Z,11.33
2019-04-21T23:41:07.057Z,13.05
2019-04-21T23:43:34.988Z,9.78
2019-04-21T23:46:11.911Z,12.47
2019-04-21T23:48:48.894Z,12.75
2019-04-21T23:51:15.964Z,10.00
2019-04-21T23:53:33.732Z,13.03
2019-04-21T23:56:03.327Z,13.62
2019-04-21T23:58:34.740Z,13.13
